createdAt,value
2019-02-28T00:01:34.913Z,50.70
2019-02-28T00:04:08.828Z,50.80
2019-02-28T00:06:38.711Z,50.87
2019-02-28T00:09:09.883Z,52.27
2019-02-28T00:11:42.075Z,50.87
2019-02-28T00:14:12.112Z,48.70
2019-02-28T00:16:42.032Z,49.07
2019-02-28T00:19:11.991Z,49.10
2019-02-28T00:21:42.001Z,43.90
2019-02-28T00:24:12.035Z,45.77
2019-02-28T00:26:47.658Z,47.10
2019-02-28T00:29:16.272Z,45.10
2019-02-28T00:31:49.443Z,45.00
2019-02-28T00:34:17.836Z,37.47
2019-02-28T00:36:50.460Z,37.67
2019-02-28T00:39:19.310Z,38.77
2019-02-28T00:41:49.243Z,33.00
2019-02-28T00:44:19.244Z,32.83
2019-02-28T00:46:49.285Z,30.10
2019-02-28T00:49:19.284Z,31.63
2019-02-28T00:51:49.204Z,30.77
2019-02-28T00:54:19.172Z,31.47
2019-02-28T00:56:52.484Z,31.17
2019-02-28T00:59:20.673Z,33.97
2019-02-28T01:01:51.716Z,34.33
2019-02-28T01:04:21.629Z,35.30
2019-02-28T01:06:52.793Z,35.20
2019-02-28T01:09:22.802Z,35.53
2019-02-28T01:11:52.750Z,36.73
2019-02-28T01:14:22.645Z,38.57
2019-02-28T01:16:53.056Z,37.77
2019-02-28T01:19:23.631Z,35.23
2019-02-28T01:21:55.389Z,33.57
2019-02-28T01:24:25.031Z,34.53
2019-02-28T01:26:54.998Z,33.70
2019-02-28T01:29:24.955Z,31.47
2019-02-28T01:31:54.883Z,32.77
2019-02-28T01:34:29.068Z,32.70
2019-02-28T01:36:57.909Z,32.27
2019-02-28T01:39:29.958Z,32.13
2019-02-28T01:41:59.404Z,33.93
2019-02-28T01:44:29.389Z,31.93
2019-02-28T01:46:59.349Z,33.00
2019-02-28T01:49:29.238Z,31.97
2019-02-28T01:51:59.805Z,29.63
2019-02-28T01:54:29.744Z,29.40
2019-02-28T01:56:59.752Z,27.23
2019-02-28T01:59:30.716Z,26.40
2019-02-28T02:02:05.710Z,26.00
2019-02-28T02:04:32.177Z,25.30
2019-02-28T02:07:10.673Z,24.53
2019-02-28T02:09:45.734Z,23.77
2019-02-28T02:12:12.396Z,24.50
2019-02-28T02:14:44.646Z,24.67
2019-02-28T02:17:13.889Z,21.93
2019-02-28T02:19:43.832Z,24.70
2019-02-28T02:22:13.705Z,24.47
2019-02-28T02:24:43.584Z,24.83
2019-02-28T02:27:16.252Z,23.03
2019-02-28T02:29:44.993Z,25.13
2019-02-28T02:32:15.034Z,23.27
2019-02-28T02:34:45.005Z,24.30
2019-02-28T02:37:14.937Z,24.67
2019-02-28T02:39:50.077Z,24.70
2019-02-28T02:42:16.820Z,25.70
2019-02-28T02:44:46.826Z,26.17
2019-02-28T02:47:17.851Z,26.43
2019-02-28T02:49:56.115Z,26.13
2019-02-28T02:52:25.902Z,26.10
2019-02-28T02:54:52.240Z,26.90
2019-02-28T02:57:22.305Z,27.30
2019-02-28T02:59:52.272Z,28.47
2019-02-28T03:02:22.821Z,29.40
2019-02-28T03:04:57.957Z,28.80
2019-02-28T03:07:24.977Z,30.03
2019-02-28T03:09:59.233Z,28.80
2019-02-28T03:12:31.196Z,29.27
2019-02-28T03:15:00.787Z,28.43
2019-02-28T03:17:30.665Z,29.87
2019-02-28T03:20:00.755Z,29.47
2019-02-28T03:22:30.595Z,29.97
2019-02-28T03:25:00.482Z,29.37
2019-02-28T03:27:30.249Z,28.47
2019-02-28T03:30:00.402Z,30.47
2019-02-28T03:32:39.766Z,30.67
2019-02-28T03:35:01.866Z,32.60
2019-02-28T03:37:33.086Z,32.27
2019-02-28T03:40:05.249Z,31.53
2019-02-28T03:42:35.076Z,30.97
2019-02-28T03:45:07.702Z,31.93
2019-02-28T03:47:37.673Z,29.37
2019-02-28T03:50:08.834Z,29.37
2019-02-28T03:52:44.064Z,30.10
2019-02-28T03:55:15.069Z,31.83
2019-02-28T03:57:46.309Z,29.60
2019-02-28T04:00:18.876Z,28.93
2019-02-28T04:02:56.699Z,28.83
2019-02-28T04:05:26.788Z,29.43
2019-02-28T04:07:53.456Z,29.27
2019-02-28T04:10:23.233Z,30.63
2019-02-28T04:12:53.156Z,29.00
2019-02-28T04:15:23.186Z,28.97
2019-02-28T04:17:53.072Z,28.40
2019-02-28T04:20:22.945Z,29.00
2019-02-28T04:22:58.552Z,28.03
2019-02-28T04:25:24.577Z,27.23
2019-02-28T04:27:54.626Z,26.83
2019-02-28T04:30:24.505Z,24.47
2019-02-28T04:32:54.306Z,23.27
2019-02-28T04:35:25.403Z,25.60
2019-02-28T04:37:55.596Z,25.07
2019-02-28T04:40:26.966Z,28.60
2019-02-28T04:42:57.029Z,25.33
2019-02-28T04:45:27.066Z,29.43
2019-02-28T04:47:56.917Z,27.00
2019-02-28T04:50:31.322Z,27.40
2019-02-28T04:52:58.314Z,26.63
2019-02-28T04:55:28.187Z,22.87
2019-02-28T04:57:58.036Z,22.47
2019-02-28T05:00:27.871Z,21.67
2019-02-28T05:02:57.787Z,20.47
2019-02-28T05:05:29.107Z,19.80
2019-02-28T05:08:04.532Z,19.57
2019-02-28T05:10:30.507Z,20.83
2019-02-28T05:13:00.433Z,20.57
2019-02-28T05:15:30.316Z,19.13
2019-02-28T05:18:00.146Z,20.73
2019-02-28T05:20:29.987Z,20.00
2019-02-28T05:23:02.666Z,20.80
2019-02-28T05:25:31.347Z,21.47
2019-02-28T05:28:01.187Z,19.90
2019-02-28T05:30:31.027Z,21.43
2019-02-28T05:33:00.909Z,20.93
2019-02-28T05:35:31.793Z,21.30
2019-02-28T05:38:01.624Z,22.20
2019-02-28T05:40:31.425Z,21.67
2019-02-28T05:43:01.348Z,22.97
2019-02-28T05:45:31.245Z,22.53
2019-02-28T05:48:03.874Z,21.77
2019-02-28T05:50:32.669Z,21.60
2019-02-28T05:53:03.069Z,23.03
2019-02-28T05:55:33.068Z,22.67
2019-02-28T05:58:02.925Z,21.23
2019-02-28T06:00:33.431Z,20.50
2019-02-28T06:03:04.321Z,21.37
2019-02-28T06:05:34.186Z,22.57
2019-02-28T06:08:04.284Z,22.60
2019-02-28T06:10:34.273Z,22.50
2019-02-28T06:13:04.158Z,22.20
2019-02-28T06:15:34.191Z,22.03
2019-02-28T06:18:06.955Z,22.90
2019-02-28T06:20:36.789Z,22.37
2019-02-28T06:23:09.372Z,22.60
2019-02-28T06:25:39.673Z,21.43
2019-02-28T06:28:12.828Z,22.00
2019-02-28T06:30:42.785Z,24.10
2019-02-28T06:33:25.988Z,23.27
2019-02-28T06:36:04.534Z,23.83
2019-02-28T06:38:33.755Z,23.63
2019-02-28T06:41:07.592Z,21.97
2019-02-28T06:43:38.351Z,23.80
2019-02-28T06:46:08.717Z,22.17
2019-02-28T06:48:39.667Z,22.10
2019-02-28T06:51:09.670Z,21.97
2019-02-28T06:53:42.791Z,22.87
2019-02-28T06:56:12.789Z,21.83
2019-02-28T06:58:42.804Z,21.40
2019-02-28T07:01:12.949Z,20.90
2019-02-28T07:03:43.068Z,22.77
2019-02-28T07:06:13.237Z,21.07
2019-02-28T07:08:44.668Z,22.63
2019-02-28T07:11:14.736Z,21.57
2019-02-28T07:13:46.549Z,21.10
2019-02-28T07:16:16.547Z,23.43
2019-02-28T07:18:52.821Z,23.37
2019-02-28T07:21:19.508Z,22.33
2019-02-28T07:23:53.274Z,21.47
2019-02-28T07:26:25.059Z,22.53
2019-02-28T07:28:55.107Z,22.90
2019-02-28T07:31:25.541Z,22.13
2019-02-28T07:33:56.507Z,21.57
2019-02-28T07:36:26.875Z,21.17
2019-02-28T07:39:01.189Z,21.17
2019-02-28T07:41:29.548Z,21.07
2019-02-28T07:43:59.693Z,21.53
2019-02-28T07:46:32.228Z,21.60
2019-02-28T07:49:02.587Z,19.97
2019-02-28T07:51:34.206Z,21.20
2019-02-28T07:54:07.108Z,20.53
2019-02-28T07:56:42.705Z,20.50
2019-02-28T07:59:10.428Z,20.47
2019-02-28T08:01:41.908Z,19.57
2019-02-28T08:04:18.068Z,18.98
2019-02-28T08:06:45.227Z,18.30
2019-02-28T08:09:30.207Z,18.65
2019-02-28T08:12:00.285Z,19.70
2019-02-28T08:14:33.336Z,18.32
2019-02-28T08:17:05.425Z,17.52
2019-02-28T08:19:36.588Z,16.35
2019-02-28T08:22:06.668Z,15.13
2019-02-28T08:24:38.413Z,16.45
2019-02-28T08:27:10.627Z,14.78
2019-02-28T08:29:44.785Z,16.45
2019-02-28T08:32:13.910Z,14.30
2019-02-28T08:34:46.826Z,14.93
2019-02-28T08:37:20.210Z,13.35
2019-02-28T08:39:51.801Z,13.85
2019-02-28T08:42:21.828Z,13.45
2019-02-28T08:44:57.803Z,14.15
2019-02-28T08:47:23.629Z,13.62
2019-02-28T08:49:58.908Z,12.00
2019-02-28T08:52:27.832Z,12.65
2019-02-28T08:55:06.704Z,11.93
2019-02-28T08:57:36.948Z,11.33
2019-02-28T09:00:13.868Z,13.78
2019-02-28T09:02:52.772Z,10.93
2019-02-28T09:05:17.868Z,11.57
2019-02-28T09:07:51.341Z,12.00
2019-02-28T09:10:21.868Z,11.50
2019-02-28T09:12:52.339Z,12.43
2019-02-28T09:15:23.110Z,12.13
2019-02-28T09:17:58.217Z,12.25
2019-02-28T09:20:32.947Z,10.60
2019-02-28T09:23:04.068Z,11.00
2019-02-28T09:25:41.686Z,11.75
2019-02-28T09:28:16.752Z,11.18
2019-02-28T09:30:49.910Z,10.75
2019-02-28T09:33:23.218Z,11.55
2019-02-28T09:35:52.227Z,12.40
2019-02-28T09:38:23.108Z,13.18
2019-02-28T09:41:01.341Z,14.85
2019-02-28T09:43:32.787Z,13.45
2019-02-28T09:46:03.068Z,12.45
2019-02-28T09:48:37.299Z,14.05
2019-02-28T09:51:10.332Z,13.50
2019-02-28T09:53:41.307Z,13.03
2019-02-28T09:56:12.588Z,13.60
2019-02-28T09:58:43.388Z,13.18
2019-02-28T10:01:14.227Z,14.03
2019-02-28T10:03:44.230Z,14.50
2019-02-28T10:06:16.430Z,14.30
2019-02-28T10:08:47.307Z,14.38
2019-02-28T10:11:18.708Z,14.45
2019-02-28T10:13:49.491Z,16.20
2019-02-28T10:16:22.230Z,16.87
2019-02-28T10:18:52.988Z,15.70
2019-02-28T10:21:26.748Z,16.65
2019-02-28T10:23:57.923Z,16.90
2019-02-28T10:26:32.107Z,18.00
2019-02-28T10:29:08.477Z,16.12
2019-02-28T10:31:40.549Z,20.25
2019-02-28T10:34:10.711Z,20.05
2019-02-28T10:36:40.751Z,19.57
2019-02-28T10:39:11.872Z,20.72
2019-02-28T10:41:43.219Z,21.02
2019-02-28T10:44:13.628Z,19.85
2019-02-28T10:46:43.908Z,20.02
2019-02-28T10:49:14.028Z,20.57
2019-02-28T10:51:48.894Z,20.97
2019-02-28T10:54:17.995Z,21.85
2019-02-28T10:56:48.788Z,20.90
2019-02-28T10:59:21.369Z,21.33
2019-02-28T11:01:50.752Z,20.82
2019-02-28T11:04:20.831Z,20.02
2019-02-28T11:06:50.829Z,20.80
2019-02-28T11:09:25.222Z,24.92
2019-02-28T11:11:53.348Z,20.62
2019-02-28T11:14:23.468Z,20.68
2019-02-28T11:16:58.879Z,19.70
2019-02-28T11:19:25.835Z,20.40
2019-02-28T11:21:56.191Z,19.50
2019-02-28T11:24:27.071Z,20.20
2019-02-28T11:26:58.193Z,20.80
2019-02-28T11:29:29.032Z,20.80
2019-02-28T11:32:02.468Z,20.77
2019-02-28T11:34:34.347Z,21.40
2019-02-28T11:37:05.499Z,21.00
2019-02-28T11:39:38.868Z,21.07
2019-02-28T11:42:10.869Z,21.85
2019-02-28T11:44:43.573Z,21.00
2019-02-28T11:47:13.513Z,19.85
2019-02-28T11:49:43.783Z,18.02
2019-02-28T11:52:15.949Z,19.50
2019-02-28T11:54:46.108Z,18.50
2019-02-28T11:57:20.691Z,17.67
2019-02-28T11:59:51.937Z,18.48
2019-02-28T12:02:22.427Z,17.98
2019-02-28T12:04:54.188Z,17.42
2019-02-28T12:07:25.543Z,17.05
2019-02-28T12:09:56.147Z,17.10
2019-02-28T12:12:30.616Z,16.02
2019-02-28T12:15:02.686Z,15.45
2019-02-28T12:17:33.027Z,15.25
2019-02-28T12:20:03.899Z,15.72
2019-02-28T12:22:35.828Z,14.58
2019-02-28T12:25:09.347Z,14.68
2019-02-28T12:27:39.830Z,13.95
2019-02-28T12:30:14.792Z,13.45
2019-02-28T12:32:48.469Z,12.82
2019-02-28T12:35:20.790Z,12.07
2019-02-28T12:37:53.925Z,12.03
2019-02-28T12:40:31.228Z,13.70
2019-02-28T12:43:01.948Z,12.50
2019-02-28T12:45:36.267Z,13.45
2019-02-28T12:48:08.833Z,14.30
2019-02-28T12:50:38.987Z,14.20
2019-02-28T12:53:09.311Z,13.65
2019-02-28T12:55:40.788Z,12.28
2019-02-28T12:58:11.107Z,14.53
2019-02-28T13:00:46.837Z,12.98
2019-02-28T13:03:21.155Z,13.25
2019-02-28T13:05:49.908Z,12.80
2019-02-28T13:08:21.827Z,13.55
2019-02-28T13:10:51.995Z,12.98
2019-02-28T13:13:27.622Z,13.28
2019-02-28T13:15:53.603Z,12.28
2019-02-28T13:18:24.362Z,14.18
2019-02-28T13:20:57.163Z,13.75
2019-02-28T13:23:27.486Z,15.25
2019-02-28T13:26:00.198Z,14.43
2019-02-28T13:28:31.690Z,13.68
2019-02-28T13:31:04.767Z,13.75
2019-02-28T13:33:34.891Z,13.95
2019-02-28T13:36:05.007Z,13.30
2019-02-28T13:38:36.766Z,14.28
2019-02-28T13:41:10.815Z,14.83
2019-02-28T13:43:44.327Z,14.40
2019-02-28T13:46:17.495Z,15.40
2019-02-28T13:48:50.500Z,16.27
2019-02-28T13:51:22.568Z,14.83
2019-02-28T13:53:56.518Z,14.87
2019-02-28T13:56:29.093Z,15.15
2019-02-28T13:59:00.571Z,14.98
2019-02-28T14:01:32.390Z,12.93
2019-02-28T14:04:04.050Z,13.30
2019-02-28T14:06:34.007Z,13.50
2019-02-28T14:09:05.228Z,11.43
2019-02-28T14:11:37.125Z,11.75
2019-02-28T14:14:07.782Z,11.55
2019-02-28T14:16:38.009Z,11.28
2019-02-28T14:19:08.647Z,11.57
2019-02-28T14:21:39.449Z,10.15
2019-02-28T14:24:09.646Z,11.18
2019-02-28T14:26:42.882Z,10.70
2019-02-28T14:29:11.696Z,11.40
2019-02-28T14:31:41.807Z,11.25
2019-02-28T14:34:11.925Z,10.88
2019-02-28T14:36:45.098Z,9.58
2019-02-28T14:39:13.682Z,10.00
2019-02-28T14:41:45.967Z,9.98
2019-02-28T14:44:16.330Z,10.32
2019-02-28T14:46:49.846Z,10.28
2019-02-28T14:49:24.126Z,10.48
2019-02-28T14:54:39.558Z,10.68
2019-02-28T14:57:13.466Z,10.95
2019-02-28T14:59:44.967Z,10.45
2019-02-28T15:02:19.072Z,9.95
2019-02-28T15:04:52.118Z,10.05
2019-02-28T15:07:23.167Z,10.05
2019-02-28T15:09:54.926Z,10.60
2019-02-28T15:12:25.528Z,10.35
2019-02-28T15:14:55.558Z,10.28
2019-02-28T15:17:25.422Z,10.10
2019-02-28T15:19:58.124Z,11.68
2019-02-28T15:22:28.568Z,10.28
2019-02-28T15:24:58.799Z,10.00
2019-02-28T15:27:29.087Z,9.85
2019-02-28T15:29:59.841Z,9.93
2019-02-28T15:32:33.247Z,11.15
2019-02-28T15:35:08.527Z,9.60
2019-02-28T15:37:39.806Z,11.03
2019-02-28T15:40:21.564Z,11.30
2019-02-28T15:42:53.008Z,10.77
2019-02-28T15:45:23.447Z,11.27
2019-02-28T15:47:59.130Z,10.80
2019-02-28T15:50:31.567Z,11.47
2019-02-28T15:53:01.891Z,11.60
2019-02-28T15:55:35.237Z,12.00
2019-02-28T15:58:06.796Z,11.53
2019-02-28T16:00:37.962Z,11.03
2019-02-28T16:03:08.194Z,12.70
2019-02-28T16:05:42.706Z,11.83
2019-02-28T16:08:10.824Z,12.33
2019-02-28T16:10:52.643Z,12.03
2019-02-28T16:13:15.673Z,12.97
2019-02-28T16:15:50.006Z,11.93
2019-02-28T16:18:18.998Z,12.20
2019-02-28T16:20:49.725Z,12.27
2019-02-28T16:23:23.569Z,14.23
2019-02-28T16:25:52.075Z,13.87
2019-02-28T16:28:22.514Z,13.13
2019-02-28T16:30:52.914Z,13.77
2019-02-28T16:33:24.733Z,13.23
2019-02-28T16:35:55.315Z,14.17
2019-02-28T16:38:26.955Z,15.17
2019-02-28T16:40:57.608Z,15.73
2019-02-28T16:43:29.274Z,15.70
2019-02-28T16:45:59.593Z,15.73
2019-02-28T16:48:33.442Z,15.93
2019-02-28T16:51:02.469Z,16.83
2019-02-28T16:53:32.754Z,17.83
2019-02-28T16:56:05.659Z,17.73
2019-02-28T16:58:39.277Z,17.90
2019-02-28T17:01:10.638Z,18.00
2019-02-28T17:03:41.783Z,17.67
2019-02-28T17:06:12.794Z,18.90
2019-02-28T17:08:44.633Z,17.57
2019-02-28T17:11:18.324Z,18.17
2019-02-28T17:13:49.234Z,19.17
2019-02-28T17:16:21.147Z,18.87
2019-02-28T17:18:53.571Z,20.07
2019-02-28T17:21:26.694Z,19.40
2019-02-28T17:24:00.196Z,19.07
2019-02-28T17:26:34.433Z,19.03
2019-02-28T17:29:06.473Z,18.87
2019-02-28T17:31:48.165Z,18.80
2019-02-28T17:34:23.774Z,20.57
2019-02-28T17:36:53.179Z,19.40
2019-02-28T17:39:28.948Z,19.80
2019-02-28T17:42:08.126Z,20.17
2019-02-28T17:44:53.233Z,19.13
2019-02-28T17:47:33.120Z,19.60
2019-02-28T17:50:24.105Z,19.47
2019-02-28T17:53:00.600Z,20.37
2019-02-28T17:55:51.354Z,18.77
2019-02-28T17:58:49.314Z,19.73
2019-02-28T18:01:47.280Z,20.67
2019-02-28T18:04:57.220Z,20.90
2019-02-28T18:07:43.478Z,21.63
2019-02-28T18:10:16.476Z,23.17
2019-02-28T18:12:59.250Z,23.33
2019-02-28T18:15:48.633Z,23.37
2019-02-28T18:18:33.837Z,25.73
2019-02-28T18:21:32.034Z,26.87
2019-02-28T18:24:08.393Z,27.07
2019-02-28T18:27:15.917Z,28.23
2019-02-28T18:30:09.080Z,30.10
2019-02-28T18:33:06.560Z,29.53
2019-02-28T18:35:32.562Z,29.30
2019-02-28T18:38:03.712Z,29.17
2019-02-28T18:40:49.554Z,31.07
2019-02-28T18:43:20.033Z,29.93
2019-02-28T18:45:59.234Z,30.60
2019-02-28T18:48:30.273Z,30.73
2019-02-28T18:51:01.675Z,30.73
2019-02-28T18:53:32.032Z,29.43
2019-02-28T18:56:07.633Z,31.87
2019-02-28T18:58:39.780Z,31.57
2019-02-28T19:01:12.585Z,30.83
2019-02-28T19:03:43.125Z,30.83
2019-02-28T19:06:15.074Z,31.60
2019-02-28T19:08:52.409Z,30.97
2019-02-28T19:11:23.192Z,31.87
2019-02-28T19:13:53.675Z,31.73
2019-02-28T19:16:24.112Z,34.50
2019-02-28T19:18:54.712Z,32.73
2019-02-28T19:21:27.473Z,35.23
2019-02-28T19:24:00.515Z,35.00
2019-02-28T19:26:31.993Z,35.60
2019-02-28T19:29:07.713Z,34.17
2019-02-28T19:31:57.894Z,35.23
2019-02-28T19:34:28.833Z,34.63
2019-02-28T19:37:03.554Z,34.20
2019-02-28T19:39:36.410Z,35.43
2019-02-28T19:42:10.594Z,37.03
2019-02-28T19:44:42.271Z,36.43
2019-02-28T19:47:12.876Z,35.70
2019-02-28T19:49:43.257Z,35.67
2019-02-28T19:52:13.294Z,35.73
2019-02-28T19:54:44.233Z,34.93
2019-02-28T19:57:16.146Z,34.40
2019-02-28T19:59:48.228Z,35.00
2019-02-28T20:02:20.633Z,35.10
2019-02-28T20:04:51.538Z,34.50
2019-02-28T20:07:22.875Z,33.37
2019-02-28T20:09:56.358Z,32.50
2019-02-28T20:12:28.305Z,31.80
2019-02-28T20:15:06.823Z,31.10
2019-02-28T20:17:37.441Z,31.27
2019-02-28T20:20:12.033Z,32.13
2019-02-28T20:22:43.073Z,31.53
2019-02-28T20:25:15.320Z,31.93
2019-02-28T20:27:46.593Z,31.83
2019-02-28T20:30:25.514Z,30.47
2019-02-28T20:33:08.448Z,30.73
2019-02-28T20:35:41.833Z,31.00
2019-02-28T20:38:15.953Z,30.47
2019-02-28T20:40:46.877Z,30.57
2019-02-28T20:43:21.304Z,30.40
2019-02-28T20:45:53.912Z,29.70
2019-02-28T20:48:29.074Z,30.70
2019-02-28T20:50:59.953Z,30.50
2019-02-28T20:53:30.714Z,31.30
2019-02-28T20:56:02.513Z,31.23
2019-02-28T20:58:32.789Z,29.60
2019-02-28T21:01:03.427Z,31.50
2019-02-28T21:03:36.632Z,30.53
2019-02-28T21:06:14.865Z,30.90
2019-02-28T21:08:46.985Z,30.83
2019-02-28T21:11:19.145Z,31.37
2019-02-28T21:13:56.465Z,30.77
2019-02-28T21:17:09.146Z,30.43
2019-02-28T21:19:31.504Z,32.10
2019-02-28T21:21:57.984Z,32.00
2019-02-28T21:24:35.584Z,30.27
2019-02-28T21:27:16.963Z,30.87
2019-02-28T21:29:50.126Z,34.13
2019-02-28T21:32:23.925Z,32.23
2019-02-28T21:35:02.982Z,34.27
2019-02-28T21:37:48.182Z,32.57
2019-02-28T21:40:24.558Z,32.57
2019-02-28T21:42:56.741Z,32.27
2019-02-28T21:48:43.239Z,33.57
2019-02-28T21:51:39.785Z,34.23
2019-02-28T21:54:35.575Z,35.03
2019-02-28T21:57:21.252Z,35.87
2019-02-28T21:59:58.606Z,37.30
2019-02-28T22:03:03.396Z,37.60
2019-02-28T22:09:14.480Z,37.43
2019-02-28T22:12:12.635Z,36.97
2019-02-28T22:15:22.374Z,38.07
2019-02-28T22:18:01.500Z,36.60
2019-02-28T22:20:50.893Z,39.50
2019-02-28T22:35:23.701Z,38.17
2019-02-28T22:43:58.492Z,41.87
2019-02-28T22:46:28.377Z,42.53
2019-02-28T22:48:58.259Z,42.43
2019-02-28T22:51:28.281Z,42.47
2019-02-28T22:53:59.797Z,42.30
2019-02-28T22:56:30.460Z,37.30
2019-02-28T22:59:00.474Z,36.60
2019-02-28T23:01:40.602Z,36.80
2019-02-28T23:04:12.150Z,36.53
2019-02-28T23:06:42.150Z,33.33
2019-02-28T23:09:12.091Z,33.67
2019-02-28T23:11:42.185Z,35.27
2019-02-28T23:14:12.113Z,34.60
2019-02-28T23:16:42.044Z,36.93
2019-02-28T23:19:12.788Z,34.53
2019-02-28T23:21:49.507Z,32.90
2019-02-28T23:24:25.976Z,34.17
2019-02-28T23:27:15.055Z,33.87
2019-02-28T23:29:51.724Z,33.43
2019-02-28T23:32:39.679Z,33.67
2019-02-28T23:35:12.617Z,34.77
2019-02-28T23:37:42.552Z,32.30
2019-02-28T23:40:12.400Z,31.93
2019-02-28T23:42:42.259Z,33.40
2019-02-28T23:45:12.113Z,32.27
2019-02-28T23:47:41.972Z,32.80
2019-02-28T23:50:11.938Z,33.13
2019-02-28T23:52:41.857Z,33.90
2019-02-28T23:55:11.700Z,33.27
2019-02-28T23:57:41.608Z,33.97
